createdAt,value
2019-03-15T00:01:56.456Z,6.90
2019-03-15T00:04:24.752Z,6.90
2019-03-15T00:06:53.049Z,7.00
2019-03-15T00:09:22.508Z,7.00
2019-03-15T00:11:51.126Z,7.00
2019-03-15T00:14:19.576Z,6.90
2019-03-15T00:16:47.922Z,6.90
2019-03-15T00:19:16.197Z,7.00
2019-03-15T00:21:44.689Z,7.00
2019-03-15T00:24:13.201Z,7.00
2019-03-15T00:26:41.542Z,7.00
2019-03-15T00:29:09.839Z,7.00
2019-03-15T00:31:38.179Z,7.00
2019-03-15T00:34:06.499Z,7.00
2019-03-15T00:36:34.815Z,7.10
2019-03-15T00:39:03.079Z,7.10
2019-03-15T00:41:31.385Z,7.10
2019-03-15T00:43:59.668Z,7.10
2019-03-15T00:46:27.935Z,7.10
2019-03-15T00:48:56.236Z,7.10
2019-03-15T00:51:24.579Z,7.00
2019-03-15T00:53:54.331Z,7.00
2019-03-15T00:56:23.000Z,7.00
2019-03-15T00:58:51.272Z,7.00
2019-03-15T01:01:20.510Z,7.00
2019-03-15T01:03:48.939Z,7.00
2019-03-15T01:06:17.223Z,7.00
2019-03-15T01:08:45.496Z,7.00
2019-03-15T01:11:13.776Z,7.00
2019-03-15T01:13:42.108Z,7.00
2019-03-15T01:16:10.383Z,7.00
2019-03-15T01:18:38.682Z,7.10
2019-03-15T01:21:06.937Z,7.10
2019-03-15T01:23:35.349Z,7.10
2019-03-15T01:26:03.630Z,7.10
2019-03-15T01:28:31.927Z,7.10
2019-03-15T01:31:00.194Z,7.10
2019-03-15T01:33:28.487Z,7.00
2019-03-15T01:35:56.778Z,7.00
2019-03-15T01:38:25.054Z,7.00
2019-03-15T01:40:53.360Z,7.00
2019-03-15T01:43:21.662Z,7.00
2019-03-15T01:45:50.008Z,6.90
2019-03-15T01:48:18.300Z,6.90
2019-03-15T01:50:46.571Z,7.00
2019-03-15T01:53:14.870Z,7.00
2019-03-15T01:55:43.198Z,7.00
2019-03-15T01:58:11.530Z,7.00
2019-03-15T02:00:40.268Z,7.00
2019-03-15T02:03:08.571Z,7.00
2019-03-15T02:05:36.862Z,7.00
2019-03-15T02:08:05.233Z,7.10
2019-03-15T02:10:33.482Z,7.00
2019-03-15T02:13:01.733Z,7.00
2019-03-15T02:15:30.062Z,7.00
2019-03-15T02:17:58.442Z,6.90
2019-03-15T02:20:27.352Z,7.00
2019-03-15T02:22:55.865Z,7.00
2019-03-15T02:25:24.190Z,7.00
2019-03-15T02:27:52.468Z,7.00
2019-03-15T02:30:20.738Z,7.00
2019-03-15T02:32:48.996Z,7.00
2019-03-15T02:35:17.460Z,7.00
2019-03-15T02:37:45.772Z,7.00
2019-03-15T02:40:14.066Z,7.10
2019-03-15T02:42:42.335Z,7.10
2019-03-15T02:45:10.685Z,7.10
2019-03-15T02:47:38.986Z,7.10
2019-03-15T02:50:08.364Z,7.10
2019-03-15T02:52:36.710Z,7.10
2019-03-15T02:55:05.073Z,7.10
2019-03-15T02:57:33.333Z,7.20
2019-03-15T03:00:01.986Z,7.10
2019-03-15T03:02:30.372Z,7.10
2019-03-15T03:04:58.767Z,7.10
2019-03-15T03:07:27.086Z,7.10
2019-03-15T03:09:55.399Z,7.00
2019-03-15T03:12:23.659Z,7.00
2019-03-15T03:14:51.936Z,7.00
2019-03-15T03:17:20.275Z,7.10
2019-03-15T03:19:48.682Z,7.10
2019-03-15T03:22:19.103Z,7.10
2019-03-15T03:24:47.463Z,7.20
2019-03-15T03:27:15.714Z,7.20
2019-03-15T03:29:44.025Z,7.20
2019-03-15T03:32:13.605Z,7.20
2019-03-15T03:34:42.363Z,7.20
2019-03-15T03:37:10.630Z,7.20
2019-03-15T03:39:39.110Z,7.20
2019-03-15T03:42:07.575Z,7.10
2019-03-15T03:44:36.138Z,7.10
2019-03-15T03:47:04.381Z,7.10
2019-03-15T03:49:32.700Z,7.10
2019-03-15T03:52:01.041Z,7.10
2019-03-15T03:54:30.445Z,7.10
2019-03-15T03:56:59.476Z,7.10
2019-03-15T03:59:27.747Z,7.00
2019-03-15T04:01:56.078Z,7.00
2019-03-15T04:04:24.359Z,7.10
2019-03-15T04:06:52.690Z,7.10
2019-03-15T04:09:20.950Z,7.10
2019-03-15T04:11:55.455Z,7.10
2019-03-15T04:14:19.473Z,7.00
2019-03-15T04:16:47.801Z,6.90
2019-03-15T04:19:16.130Z,7.00
2019-03-15T04:21:44.575Z,7.10
2019-03-15T04:24:12.921Z,7.10
2019-03-15T04:26:41.127Z,7.10
2019-03-15T04:29:09.392Z,7.10
2019-03-15T04:31:37.702Z,7.10
2019-03-15T04:34:05.982Z,7.10
2019-03-15T04:36:34.320Z,7.10
2019-03-15T04:39:02.599Z,7.10
2019-03-15T04:41:31.091Z,7.10
2019-03-15T04:43:59.369Z,7.10
2019-03-15T04:46:27.656Z,7.00
2019-03-15T04:48:56.765Z,7.00
2019-03-15T04:51:25.094Z,7.00
2019-03-15T04:53:53.374Z,7.00
2019-03-15T04:56:21.958Z,7.10
2019-03-15T04:58:50.199Z,7.10
2019-03-15T05:01:18.591Z,7.10
2019-03-15T05:03:46.848Z,7.10
2019-03-15T05:06:15.153Z,7.10
2019-03-15T05:08:43.415Z,7.10
2019-03-15T05:11:11.835Z,7.20
2019-03-15T05:13:40.230Z,7.10
2019-03-15T05:16:08.665Z,7.10
2019-03-15T05:18:36.986Z,7.20
2019-03-15T05:21:05.252Z,7.10
2019-03-15T05:23:33.536Z,7.10
2019-03-15T05:26:01.856Z,7.10
2019-03-15T05:28:30.123Z,7.00
2019-03-15T05:30:58.415Z,7.10
2019-03-15T05:33:26.758Z,7.00
2019-03-15T05:35:55.034Z,7.00
2019-03-15T05:38:23.336Z,6.90
2019-03-15T05:40:51.834Z,6.90
2019-03-15T05:43:20.270Z,6.90
2019-03-15T05:45:48.882Z,6.90
2019-03-15T05:48:17.159Z,6.90
2019-03-15T05:50:45.509Z,6.90
2019-03-15T05:53:13.808Z,7.00
2019-03-15T05:55:42.180Z,6.90
2019-03-15T05:58:10.615Z,6.90
2019-03-15T06:00:38.945Z,6.90
2019-03-15T06:03:07.303Z,6.90
2019-03-15T06:05:35.586Z,6.90
2019-03-15T06:08:03.914Z,6.90
2019-03-15T06:10:32.258Z,6.90
2019-03-15T06:13:00.592Z,6.90
2019-03-15T06:15:28.898Z,6.90
2019-03-15T06:17:57.298Z,6.90
2019-03-15T06:20:25.591Z,6.80
2019-03-15T06:22:53.938Z,6.80
2019-03-15T06:25:22.452Z,6.80
2019-03-15T06:27:50.702Z,6.80
2019-03-15T06:30:19.246Z,6.90
2019-03-15T06:32:47.773Z,6.90
2019-03-15T06:35:16.074Z,6.80
2019-03-15T06:37:44.410Z,6.80
2019-03-15T06:40:13.780Z,6.80
2019-03-15T06:42:42.790Z,6.80
2019-03-15T06:45:11.075Z,6.80
2019-03-15T06:47:39.366Z,6.80
2019-03-15T06:50:07.740Z,6.90
2019-03-15T06:52:36.264Z,6.80
2019-03-15T06:55:05.463Z,6.90
2019-03-15T06:57:34.104Z,6.90
2019-03-15T07:00:02.412Z,6.90
2019-03-15T07:02:30.738Z,6.80
2019-03-15T07:04:59.037Z,6.90
2019-03-15T07:07:27.319Z,6.90
2019-03-15T07:09:55.631Z,6.90
2019-03-15T07:12:23.905Z,6.90
2019-03-15T07:14:52.192Z,6.90
2019-03-15T07:17:20.519Z,7.00
2019-03-15T07:19:49.200Z,6.80
2019-03-15T07:22:19.878Z,6.90
2019-03-15T07:24:47.528Z,7.00
2019-03-15T07:27:15.847Z,7.00
2019-03-15T07:29:44.143Z,7.00
2019-03-15T07:32:12.531Z,7.10
2019-03-15T07:34:41.547Z,7.20
2019-03-15T07:37:09.982Z,7.20
2019-03-15T07:39:39.894Z,7.30
2019-03-15T07:42:08.195Z,7.40
2019-03-15T07:44:36.558Z,7.30
2019-03-15T07:47:04.883Z,7.30
2019-03-15T07:49:33.262Z,7.30
2019-03-15T07:52:03.849Z,7.20
2019-03-15T07:54:37.821Z,7.20
2019-03-15T07:57:01.610Z,7.20
2019-03-15T07:59:29.868Z,7.30
2019-03-15T08:01:58.181Z,7.40
2019-03-15T08:04:26.578Z,7.30
2019-03-15T08:06:55.639Z,7.30
2019-03-15T08:09:23.901Z,7.40
2019-03-15T08:11:52.234Z,7.30
2019-03-15T08:14:20.493Z,7.40
2019-03-15T08:16:48.835Z,7.40
2019-03-15T08:19:17.381Z,7.50
2019-03-15T08:21:46.021Z,7.50
2019-03-15T08:24:14.578Z,7.50
2019-03-15T08:26:42.898Z,7.40
2019-03-15T08:29:11.303Z,7.50
2019-03-15T08:31:39.625Z,7.60
2019-03-15T08:34:07.911Z,7.60
2019-03-15T08:36:36.258Z,7.60
2019-03-15T08:39:05.575Z,7.60
2019-03-15T08:41:33.947Z,7.60
2019-03-15T08:44:02.250Z,7.70
2019-03-15T08:46:30.539Z,7.80
2019-03-15T08:48:58.841Z,7.80
2019-03-15T08:51:27.208Z,7.90
2019-03-15T08:53:55.482Z,7.90
2019-03-15T08:56:23.811Z,8.00
2019-03-15T08:58:52.106Z,8.00
2019-03-15T09:01:23.764Z,8.10
2019-03-15T09:03:50.430Z,8.10
2019-03-15T09:06:18.939Z,8.00
2019-03-15T09:08:49.991Z,8.00
2019-03-15T09:11:18.305Z,7.90
2019-03-15T09:13:49.145Z,7.90
2019-03-15T09:16:16.823Z,7.90
2019-03-15T09:18:45.130Z,8.00
2019-03-15T09:21:13.420Z,8.00
2019-03-15T09:23:41.723Z,8.00
2019-03-15T09:26:10.557Z,8.00
2019-03-15T09:28:39.038Z,8.10
2019-03-15T09:31:07.712Z,8.10
2019-03-15T09:33:36.226Z,8.10
2019-03-15T09:36:04.561Z,8.10
2019-03-15T09:38:32.918Z,8.10
2019-03-15T09:41:01.223Z,8.20
2019-03-15T09:43:29.511Z,8.20
2019-03-15T09:45:57.954Z,8.30
2019-03-15T09:48:26.245Z,8.30
2019-03-15T09:50:54.552Z,8.30
2019-03-15T09:53:22.822Z,8.50
2019-03-15T09:55:51.169Z,8.60
2019-03-15T09:58:19.498Z,8.60
2019-03-15T10:00:47.916Z,8.60
2019-03-15T10:03:22.017Z,8.60
2019-03-15T10:05:46.230Z,8.70
2019-03-15T10:08:14.595Z,8.70
2019-03-15T10:10:42.983Z,8.90
2019-03-15T10:13:13.216Z,8.90
2019-03-15T10:15:41.586Z,9.00
2019-03-15T10:18:10.494Z,9.10
2019-03-15T10:20:38.846Z,9.10
2019-03-15T10:23:07.279Z,9.10
2019-03-15T10:25:46.225Z,9.20
2019-03-15T10:28:05.629Z,9.20
2019-03-15T10:30:33.883Z,9.30
2019-03-15T10:33:02.189Z,9.40
2019-03-15T10:35:30.761Z,9.50
2019-03-15T10:37:59.300Z,9.40
2019-03-15T10:40:27.756Z,9.40
2019-03-15T10:42:56.091Z,9.30
2019-03-15T10:45:24.480Z,9.30
2019-03-15T10:47:52.774Z,9.30
2019-03-15T10:50:21.107Z,9.30
2019-03-15T10:52:49.362Z,9.30
2019-03-15T10:55:20.540Z,9.30
2019-03-15T10:57:47.718Z,9.30
2019-03-15T11:00:16.395Z,9.40
2019-03-15T11:02:44.681Z,9.40
2019-03-15T11:05:12.991Z,9.20
2019-03-15T11:07:41.253Z,9.20
2019-03-15T11:10:09.718Z,9.20
2019-03-15T11:12:38.416Z,9.30
2019-03-15T11:15:07.171Z,9.30
2019-03-15T11:17:35.852Z,9.40
2019-03-15T11:20:04.344Z,9.50
2019-03-15T11:22:32.685Z,9.50
2019-03-15T11:25:01.383Z,9.60
2019-03-15T11:27:29.671Z,9.70
2019-03-15T11:29:58.231Z,9.70
2019-03-15T11:32:26.610Z,9.80
2019-03-15T11:34:54.974Z,9.90
2019-03-15T11:37:23.259Z,10.00
2019-03-15T11:39:51.578Z,10.10
2019-03-15T11:42:19.891Z,10.20
2019-03-15T11:44:48.447Z,10.30
2019-03-15T11:47:16.876Z,10.40
2019-03-15T11:49:45.317Z,10.50
2019-03-15T11:52:13.632Z,10.50
2019-03-15T11:54:41.999Z,10.60
2019-03-15T11:57:10.340Z,10.60
2019-03-15T11:59:38.770Z,10.60
2019-03-15T12:02:07.062Z,10.70
2019-03-15T12:04:35.434Z,10.80
2019-03-15T12:07:03.778Z,10.90
2019-03-15T12:09:32.156Z,10.90
2019-03-15T12:12:00.459Z,11.00
2019-03-15T12:14:40.454Z,11.00
2019-03-15T12:16:58.891Z,11.10
2019-03-15T12:19:27.446Z,11.20
2019-03-15T12:22:05.808Z,11.30
2019-03-15T12:24:26.065Z,11.40
2019-03-15T12:26:54.379Z,11.60
2019-03-15T12:29:22.710Z,11.70
2019-03-15T12:31:51.146Z,11.80
2019-03-15T12:34:19.819Z,11.80
2019-03-15T12:36:48.337Z,11.70
2019-03-15T12:39:16.720Z,11.60
2019-03-15T12:41:46.470Z,11.70
2019-03-15T12:44:15.007Z,11.70
2019-03-15T12:46:43.311Z,11.60
2019-03-15T12:49:11.669Z,11.50
2019-03-15T12:51:39.997Z,11.60
2019-03-15T12:54:08.315Z,11.60
2019-03-15T12:56:37.136Z,11.60
2019-03-15T12:59:05.442Z,11.60
2019-03-15T13:01:33.729Z,11.50
2019-03-15T13:04:02.121Z,11.60
2019-03-15T13:06:30.480Z,11.60
2019-03-15T13:08:58.845Z,11.70
2019-03-15T13:11:27.323Z,11.70
2019-03-15T13:13:55.680Z,11.60
2019-03-15T13:16:24.013Z,11.60
2019-03-15T13:18:52.352Z,11.50
2019-03-15T13:21:21.038Z,11.50
2019-03-15T13:23:49.601Z,11.50
2019-03-15T13:26:18.114Z,11.50
2019-03-15T13:28:46.452Z,11.50
2019-03-15T13:31:15.145Z,11.40
2019-03-15T13:33:43.701Z,11.40
2019-03-15T13:36:12.090Z,11.40
2019-03-15T13:38:40.474Z,11.60
2019-03-15T13:41:08.843Z,11.60
2019-03-15T13:43:37.295Z,11.70
2019-03-15T13:46:05.640Z,11.70
2019-03-15T13:48:34.091Z,11.80
2019-03-15T13:51:02.523Z,12.00
2019-03-15T13:53:30.805Z,11.90
2019-03-15T13:56:01.516Z,11.90
2019-03-15T13:58:29.807Z,12.00
2019-03-15T14:00:58.261Z,12.10
2019-03-15T14:03:26.560Z,12.20
2019-03-15T14:05:54.972Z,12.20
2019-03-15T14:08:23.405Z,12.40
2019-03-15T14:10:51.997Z,12.50
2019-03-15T14:13:20.411Z,12.50
2019-03-15T14:15:48.848Z,12.60
2019-03-15T14:18:17.274Z,12.60
2019-03-15T14:20:45.846Z,12.60
2019-03-15T14:23:15.880Z,12.60
2019-03-15T14:25:44.390Z,12.60
2019-03-15T14:34:45.319Z,12.40
2019-03-15T14:37:14.654Z,12.40
2019-03-15T14:39:43.437Z,12.40
2019-03-15T14:42:13.849Z,12.30
2019-03-15T14:44:42.233Z,12.20
2019-03-15T14:47:10.679Z,12.10
2019-03-15T14:49:39.408Z,12.10
2019-03-15T14:52:08.690Z,12.10
2019-03-15T14:54:37.758Z,12.20
2019-03-15T14:57:06.151Z,12.10
2019-03-15T14:59:34.518Z,12.20
2019-03-15T15:02:02.978Z,12.20
2019-03-15T15:04:31.401Z,12.20
2019-03-15T15:06:59.912Z,12.20
2019-03-15T15:09:28.438Z,12.20
2019-03-15T15:11:56.742Z,12.10
2019-03-15T15:14:25.095Z,12.00
2019-03-15T15:16:53.462Z,12.00
2019-03-15T15:19:23.518Z,11.90
2019-03-15T15:21:53.091Z,12.00
2019-03-15T15:24:21.531Z,11.90
2019-03-15T15:26:49.990Z,11.90
2019-03-15T15:29:18.476Z,11.80
2019-03-15T15:31:46.915Z,11.70
2019-03-15T15:34:15.333Z,11.80
2019-03-15T15:36:43.700Z,11.80
2019-03-15T15:39:13.470Z,11.60
2019-03-15T15:41:41.935Z,11.60
2019-03-15T15:44:10.291Z,11.60
2019-03-15T15:46:38.688Z,11.60
2019-03-15T15:49:07.040Z,11.50
2019-03-15T15:51:35.460Z,11.40
2019-03-15T15:54:03.839Z,11.40
2019-03-15T15:56:32.228Z,11.40
2019-03-15T15:59:02.935Z,11.50
2019-03-15T16:01:30.815Z,11.50
2019-03-15T16:03:59.257Z,11.50
2019-03-15T16:06:27.651Z,11.60
2019-03-15T16:08:56.037Z,11.60
2019-03-15T16:11:24.673Z,11.60
2019-03-15T16:13:53.100Z,11.60
2019-03-15T16:16:21.555Z,11.60
2019-03-15T16:18:50.028Z,11.60
2019-03-15T16:21:19.297Z,11.60
2019-03-15T16:23:47.712Z,11.50
2019-03-15T16:26:16.189Z,11.40
2019-03-15T16:28:44.594Z,11.40
2019-03-15T16:31:13.011Z,11.40
2019-03-15T16:33:41.382Z,11.30
2019-03-15T16:36:11.371Z,11.40
2019-03-15T16:38:39.790Z,11.30
2019-03-15T16:41:08.183Z,11.30
2019-03-15T16:43:36.531Z,11.30
2019-03-15T16:46:04.881Z,11.30
2019-03-15T16:48:34.293Z,11.30
2019-03-15T16:51:02.725Z,11.30
2019-03-15T16:53:31.094Z,11.20
2019-03-15T16:55:59.551Z,11.20
2019-03-15T16:58:27.901Z,11.10
2019-03-15T17:00:56.429Z,11.10
2019-03-15T17:03:24.780Z,11.10
2019-03-15T17:05:54.981Z,11.00
2019-03-15T17:08:23.321Z,10.90
2019-03-15T17:10:51.732Z,10.90
2019-03-15T17:13:20.132Z,10.80
2019-03-15T17:15:48.604Z,10.60
2019-03-15T17:18:17.174Z,10.50
2019-03-15T17:20:45.666Z,10.40
2019-03-15T17:23:14.119Z,10.30
2019-03-15T17:25:43.795Z,10.20
2019-03-15T17:28:13.381Z,10.10
2019-03-15T17:30:42.046Z,10.00
2019-03-15T17:33:10.571Z,9.80
2019-03-15T17:35:38.942Z,9.70
2019-03-15T17:38:07.425Z,9.60
2019-03-15T17:40:35.835Z,9.60
2019-03-15T17:43:05.882Z,9.60
2019-03-15T17:45:34.286Z,9.60
2019-03-15T17:48:02.959Z,9.60
2019-03-15T17:50:31.359Z,9.60
2019-03-15T17:52:59.827Z,9.50
2019-03-15T17:55:28.290Z,9.50
2019-03-15T17:57:56.742Z,9.50
2019-03-15T18:00:28.551Z,9.40
2019-03-15T18:02:56.995Z,9.40
2019-03-15T18:05:25.463Z,9.30
2019-03-15T18:07:53.933Z,9.30
2019-03-15T18:10:22.351Z,9.20
2019-03-15T18:12:50.825Z,9.20
2019-03-15T18:15:19.427Z,9.20
2019-03-15T18:17:47.872Z,9.10
2019-03-15T18:20:16.312Z,9.10
2019-03-15T18:22:44.767Z,9.10
2019-03-15T18:25:13.190Z,9.00
2019-03-15T18:27:41.972Z,8.90
2019-03-15T18:30:10.799Z,8.90
2019-03-15T18:32:39.223Z,8.90
2019-03-15T18:35:07.811Z,8.80
2019-03-15T18:37:37.184Z,8.80
2019-03-15T18:40:07.409Z,8.70
2019-03-15T18:42:36.660Z,8.70
2019-03-15T18:45:06.020Z,8.60
2019-03-15T18:47:37.942Z,8.60
2019-03-15T18:50:07.789Z,8.60
2019-03-15T18:52:36.816Z,8.60
2019-03-15T18:55:05.224Z,8.50
2019-03-15T18:57:33.976Z,8.50
2019-03-15T19:00:03.196Z,8.50
2019-03-15T19:02:31.693Z,8.50
2019-03-15T19:05:00.381Z,8.40
2019-03-15T19:07:28.940Z,8.40
2019-03-15T19:12:31.960Z,8.40
2019-03-15T19:15:03.010Z,8.30
2019-03-15T19:17:31.522Z,8.30
2019-03-15T19:20:00.066Z,8.30
2019-03-15T19:22:28.577Z,8.30
2019-03-15T19:24:57.174Z,8.30
2019-03-15T19:27:26.426Z,8.30
2019-03-15T19:29:54.948Z,8.30
2019-03-15T19:32:24.079Z,8.30
2019-03-15T19:34:55.386Z,8.30
2019-03-15T19:37:24.077Z,8.30
2019-03-15T19:39:52.937Z,8.30
2019-03-15T19:42:21.511Z,8.30
2019-03-15T19:44:50.291Z,8.40
2019-03-15T19:47:18.954Z,8.40
2019-03-15T19:49:47.448Z,8.40
2019-03-15T19:52:16.161Z,8.40
2019-03-15T19:54:44.681Z,8.40
2019-03-15T19:57:13.217Z,8.40
2019-03-15T19:59:42.859Z,8.40
2019-03-15T20:02:12.372Z,8.40
2019-03-15T20:04:42.111Z,8.40
2019-03-15T20:07:10.991Z,8.40
2019-03-15T20:09:39.645Z,8.40
2019-03-15T20:12:08.011Z,8.40
2019-03-15T20:14:36.514Z,8.40
2019-03-15T20:17:05.387Z,8.40
2019-03-15T20:19:33.901Z,8.50
2019-03-15T20:22:02.451Z,8.40
2019-03-15T20:24:31.575Z,8.40
2019-03-15T20:27:00.668Z,8.40
2019-03-15T20:29:29.177Z,8.40
2019-03-15T20:32:00.251Z,8.40
2019-03-15T20:34:31.787Z,8.40
2019-03-15T20:37:01.759Z,8.40
2019-03-15T20:39:35.371Z,8.40
2019-03-15T20:42:05.174Z,8.40
2019-03-15T20:44:34.028Z,8.40
2019-03-15T20:47:02.973Z,8.40
2019-03-15T20:49:32.427Z,8.30
2019-03-15T20:52:01.736Z,8.30
2019-03-15T20:54:30.757Z,8.30
2019-03-15T20:56:59.967Z,8.30
2019-03-15T20:59:29.128Z,8.30
2019-03-15T21:01:58.875Z,8.30
2019-03-15T21:04:28.877Z,8.30
2019-03-15T21:06:57.648Z,8.30
2019-03-15T21:09:26.360Z,8.30
2019-03-15T21:11:58.437Z,8.30
2019-03-15T21:14:29.270Z,8.30
2019-03-15T21:16:58.791Z,8.30
2019-03-15T21:19:30.452Z,8.30
2019-03-15T21:22:00.938Z,8.30
2019-03-15T21:24:31.752Z,8.20
2019-03-15T21:27:02.749Z,8.30
2019-03-15T21:29:32.958Z,8.30
2019-03-15T21:32:03.583Z,8.30
2019-03-15T21:34:36.155Z,8.20
2019-03-15T21:37:04.794Z,8.20
2019-03-15T21:39:33.733Z,8.20
2019-03-15T21:42:02.278Z,8.20
2019-03-15T21:44:32.165Z,8.20
2019-03-15T21:47:02.932Z,8.20
2019-03-15T21:49:35.270Z,8.20
2019-03-15T21:52:04.569Z,8.20
2019-03-15T21:54:33.345Z,8.30
2019-03-15T21:57:01.804Z,8.30
2019-03-15T21:59:30.199Z,8.30
2019-03-15T22:01:58.645Z,8.30
2019-03-15T22:04:29.395Z,8.30
2019-03-15T22:06:57.836Z,8.30
2019-03-15T22:09:26.212Z,8.30
2019-03-15T22:11:54.551Z,8.30
2019-03-15T22:14:25.695Z,8.30
2019-03-15T22:16:54.107Z,8.30
2019-03-15T22:19:23.488Z,8.30
2019-03-15T22:21:51.830Z,8.30
2019-03-15T22:24:20.198Z,8.30
2019-03-15T22:26:48.638Z,8.30
2019-03-15T22:29:17.012Z,8.30
2019-03-15T22:31:46.588Z,8.30
2019-03-15T22:34:17.325Z,8.30
2019-03-15T22:36:45.721Z,8.30
2019-03-15T22:39:15.639Z,8.30
2019-03-15T22:41:44.488Z,8.30
2019-03-15T22:44:12.901Z,8.30
2019-03-15T22:46:41.204Z,8.30
2019-03-15T22:49:09.573Z,8.30
2019-03-15T22:51:37.912Z,8.30
2019-03-15T22:54:06.240Z,8.30
2019-03-15T22:56:34.550Z,8.30
2019-03-15T22:59:02.995Z,8.30
2019-03-15T23:01:31.320Z,8.30
2019-03-15T23:03:59.696Z,8.30
2019-03-15T23:06:28.214Z,8.30
2019-03-15T23:08:56.595Z,8.20
2019-03-15T23:11:24.933Z,8.20
2019-03-15T23:13:53.619Z,8.30
2019-03-15T23:16:22.126Z,8.30
2019-03-15T23:18:50.519Z,8.30
2019-03-15T23:21:18.851Z,8.30
2019-03-15T23:23:47.264Z,8.30
2019-03-15T23:26:15.600Z,8.30
2019-03-15T23:28:47.151Z,8.40
2019-03-15T23:31:14.034Z,8.30
2019-03-15T23:33:42.376Z,8.30
2019-03-15T23:36:10.702Z,8.30
2019-03-15T23:38:39.056Z,8.30
2019-03-15T23:41:07.420Z,8.20
2019-03-15T23:43:35.785Z,8.20
2019-03-15T23:46:04.188Z,8.20
2019-03-15T23:48:33.527Z,8.20
2019-03-15T23:51:02.090Z,8.20
2019-03-15T23:53:32.952Z,8.20
2019-03-15T23:56:03.816Z,8.20
2019-03-15T23:58:32.106Z,8.20
